createdAt,value
2023-02-10T00:00:54.913Z,-0.32
2023-02-10T00:06:24.935Z,-0.44
2023-02-10T00:12:01.015Z,-0.60
2023-02-10T00:17:29.028Z,-0.82
2023-02-10T00:22:57.162Z,-1.02
2023-02-10T00:28:25.138Z,-1.23
2023-02-10T00:33:53.020Z,-1.38
2023-02-10T00:39:20.759Z,-1.53
2023-02-10T00:44:48.179Z,-1.69
2023-02-10T00:50:16.004Z,-1.78
2023-02-10T00:55:42.862Z,-1.87
2023-02-10T01:01:09.869Z,-1.91
2023-02-10T01:06:38.293Z,-1.91
2023-02-10T01:12:06.344Z,-1.86
2023-02-10T01:17:34.228Z,-1.77
2023-02-10T01:23:01.968Z,-1.80
2023-02-10T01:28:29.166Z,-1.87
2023-02-10T01:33:57.119Z,-1.96
2023-02-10T01:39:23.804Z,-1.98
2023-02-10T01:44:51.035Z,-2.00
2023-02-10T01:50:21.409Z,-2.01
2023-02-10T01:55:54.248Z,-1.91
2023-02-10T02:01:22.043Z,-1.79
2023-02-10T02:06:49.876Z,-1.81
2023-02-10T02:12:35.835Z,-1.88
2023-02-10T02:18:06.055Z,-1.98
2023-02-10T02:23:52.677Z,-2.03
2023-02-10T02:29:49.851Z,-1.96
2023-02-10T02:35:27.455Z,-1.91
2023-02-10T02:40:56.494Z,-1.84
2023-02-10T02:46:24.204Z,-1.73
2023-02-10T02:52:11.232Z,-1.55
2023-02-10T02:57:53.261Z,-1.47
2023-02-10T03:03:20.905Z,-1.44
2023-02-10T03:08:48.563Z,-1.42
2023-02-10T03:14:16.511Z,-1.38
2023-02-10T03:19:44.252Z,-1.45
2023-02-10T03:25:11.391Z,-1.44
2023-02-10T03:30:39.472Z,-1.42
2023-02-10T03:36:07.426Z,-1.45
2023-02-10T03:41:34.506Z,-1.45
2023-02-10T03:47:02.457Z,-1.44
2023-02-10T03:52:29.517Z,-1.49
2023-02-10T03:57:57.225Z,-1.49
2023-02-10T04:03:24.566Z,-1.53
2023-02-10T04:08:52.657Z,-1.56
2023-02-10T04:14:20.205Z,-1.60
2023-02-10T04:19:47.505Z,-1.67
2023-02-10T04:25:14.602Z,-1.71
2023-02-10T04:30:42.420Z,-1.81
2023-02-10T04:36:09.575Z,-1.84
2023-02-10T04:41:36.102Z,-1.88
2023-02-10T04:47:03.575Z,-1.87
2023-02-10T04:52:30.465Z,-1.88
2023-02-10T04:57:57.886Z,-1.94
2023-02-10T05:03:26.343Z,-1.90
2023-02-10T05:08:53.903Z,-1.88
2023-02-10T05:14:21.972Z,-1.78
2023-02-10T05:19:49.234Z,-1.63
2023-02-10T05:25:16.568Z,-1.50
2023-02-10T05:30:43.822Z,-1.25
2023-02-10T05:36:11.756Z,-0.72
2023-02-10T05:41:38.825Z,-0.17
2023-02-10T05:47:06.514Z,0.38
2023-02-10T05:52:34.187Z,0.79
2023-02-10T05:58:03.099Z,1.12
2023-02-10T06:03:31.992Z,1.44
2023-02-10T06:08:59.771Z,1.64
2023-02-10T06:14:26.882Z,1.83
2023-02-10T06:19:54.863Z,2.09
2023-02-10T06:25:21.934Z,2.32
2023-02-10T06:30:49.799Z,2.52
2023-02-10T06:36:16.790Z,2.71
2023-02-10T06:41:43.785Z,2.88
2023-02-10T06:47:10.796Z,3.01
2023-02-10T06:52:39.301Z,3.00
2023-02-10T06:58:06.708Z,3.22
2023-02-10T07:03:34.069Z,3.65
2023-02-10T07:09:04.203Z,3.76
2023-02-10T07:14:31.918Z,3.89
2023-02-10T07:19:58.914Z,4.01
2023-02-10T07:25:26.098Z,4.19
2023-02-10T07:31:20.849Z,4.42
2023-02-10T07:36:55.315Z,4.91
2023-02-10T07:42:23.102Z,5.11
2023-02-10T07:48:26.210Z,5.05
2023-02-10T07:53:54.717Z,5.06
2023-02-10T07:59:21.917Z,5.14
2023-02-10T08:04:49.102Z,5.37
2023-02-10T08:10:17.031Z,5.57
2023-02-10T08:15:43.908Z,5.81
2023-02-10T08:21:11.135Z,6.25
2023-02-10T08:26:38.931Z,6.61
2023-02-10T08:32:06.321Z,6.67
2023-02-10T08:37:34.239Z,6.82
2023-02-10T08:43:02.768Z,6.76
2023-02-10T08:48:31.590Z,7.02
2023-02-10T08:54:01.639Z,7.20
2023-02-10T08:59:28.993Z,7.63
2023-02-10T09:05:09.585Z,7.77
2023-02-10T09:10:43.825Z,7.45
2023-02-10T09:16:11.970Z,7.53
2023-02-10T09:21:47.005Z,8.16
2023-02-10T09:27:17.168Z,8.67
2023-02-10T09:32:45.579Z,8.79
2023-02-10T09:38:15.601Z,9.00
2023-02-10T09:43:56.488Z,9.20
2023-02-10T09:49:42.479Z,9.37
2023-02-10T09:55:22.981Z,9.62
2023-02-10T10:00:57.401Z,10.39
2023-02-10T10:06:33.873Z,11.02
2023-02-10T10:12:02.158Z,11.01
2023-02-10T10:17:57.566Z,11.15
2023-02-10T10:24:10.117Z,11.15
2023-02-10T10:29:37.215Z,11.41
2023-02-10T10:35:06.995Z,11.65
2023-02-10T10:40:38.502Z,11.05
2023-02-10T10:46:14.492Z,10.75
2023-02-10T10:51:41.832Z,10.75
2023-02-10T10:57:16.687Z,10.81
2023-02-10T11:03:05.412Z,11.31
2023-02-10T11:08:43.229Z,11.56
2023-02-10T11:14:26.360Z,11.40
2023-02-10T11:20:03.633Z,11.37
2023-02-10T11:25:37.403Z,11.34
2023-02-10T11:31:22.772Z,11.08
2023-02-10T11:36:53.669Z,11.33
2023-02-10T11:42:37.280Z,11.15
2023-02-10T11:48:24.145Z,11.49
2023-02-10T11:53:52.507Z,11.47
2023-02-10T11:59:39.390Z,11.73
2023-02-10T12:05:29.761Z,11.59
2023-02-10T12:11:07.152Z,11.37
2023-02-10T12:16:51.502Z,11.13
2023-02-10T12:22:39.306Z,11.03
2023-02-10T12:28:41.948Z,11.07
2023-02-10T12:34:42.009Z,11.18
2023-02-10T12:40:37.025Z,10.82
2023-02-10T12:46:42.168Z,10.92
2023-02-10T12:52:24.735Z,10.79
2023-02-10T12:58:03.292Z,10.21
2023-02-10T13:03:36.020Z,10.06
2023-02-10T13:09:15.302Z,9.87
2023-02-10T13:14:44.482Z,9.95
2023-02-10T13:20:43.715Z,9.99
2023-02-10T13:26:19.384Z,10.36
2023-02-10T13:32:14.605Z,10.43
2023-02-10T13:37:47.149Z,10.32
2023-02-10T13:43:32.885Z,10.12
2023-02-10T13:49:02.906Z,10.14
2023-02-10T13:54:34.814Z,9.92
2023-02-10T14:00:14.309Z,9.64
2023-02-10T14:06:04.464Z,9.45
2023-02-10T14:11:45.137Z,9.46
2023-02-10T14:17:13.896Z,9.22
2023-02-10T14:22:47.931Z,9.04
2023-02-10T14:28:28.611Z,8.88
2023-02-10T14:34:02.813Z,8.59
2023-02-10T14:39:31.994Z,8.32
2023-02-10T14:45:01.725Z,8.50
2023-02-10T14:50:32.283Z,8.31
2023-02-10T14:56:01.543Z,7.94
2023-02-10T15:01:36.200Z,7.93
2023-02-10T15:07:04.891Z,7.80
2023-02-10T15:12:42.569Z,7.75
2023-02-10T15:18:23.116Z,7.61
2023-02-10T15:23:50.975Z,7.62
2023-02-10T15:29:18.746Z,7.36
2023-02-10T15:34:46.220Z,7.08
2023-02-10T15:40:21.761Z,7.00
2023-02-10T15:45:49.753Z,6.85
2023-02-10T15:51:24.782Z,6.65
2023-02-10T15:57:01.072Z,6.51
2023-02-10T16:02:28.862Z,6.28
2023-02-10T16:08:05.485Z,6.15
2023-02-10T16:13:33.796Z,5.95
2023-02-10T16:19:01.644Z,5.88
2023-02-10T16:24:30.482Z,5.69
2023-02-10T16:29:58.453Z,5.77
2023-02-10T16:35:27.864Z,5.66
2023-02-10T16:40:55.753Z,5.69
2023-02-10T16:46:23.710Z,5.71
2023-02-10T16:51:51.430Z,5.70
2023-02-10T16:57:19.798Z,5.75
2023-02-10T17:02:47.403Z,5.78
2023-02-10T17:08:15.577Z,5.79
2023-02-10T17:13:43.590Z,5.68
2023-02-10T17:19:13.438Z,5.74
2023-02-10T17:24:40.188Z,5.64
2023-02-10T17:30:08.615Z,5.68
2023-02-10T17:35:36.415Z,5.72
2023-02-10T17:41:16.656Z,5.77
2023-02-10T17:46:48.234Z,5.73
2023-02-10T17:52:16.434Z,5.68
2023-02-10T17:57:45.361Z,5.74
2023-02-10T18:03:19.387Z,5.78
2023-02-10T18:08:49.421Z,5.69
2023-02-10T18:14:16.670Z,5.60
2023-02-10T18:19:47.564Z,5.44
2023-02-10T18:25:14.494Z,5.28
2023-02-10T18:30:45.420Z,5.20
2023-02-10T18:36:17.883Z,5.11
2023-02-10T18:41:45.514Z,5.08
2023-02-10T18:47:12.426Z,5.06
2023-02-10T18:52:42.669Z,5.03
2023-02-10T18:58:16.365Z,4.96
2023-02-10T19:03:44.485Z,5.14
2023-02-10T19:09:13.976Z,5.09
2023-02-10T19:14:41.879Z,5.09
2023-02-10T19:20:11.376Z,5.02
2023-02-10T19:25:39.780Z,4.98
2023-02-10T19:31:11.040Z,4.92
2023-02-10T19:36:38.951Z,4.85
2023-02-10T19:42:07.560Z,4.60
2023-02-10T19:47:35.288Z,4.53
2023-02-10T19:53:05.457Z,4.42
2023-02-10T19:58:35.748Z,4.33
2023-02-10T20:04:08.332Z,4.23
2023-02-10T20:09:38.943Z,4.06
2023-02-10T20:15:06.180Z,3.95
2023-02-10T20:20:34.220Z,3.96
2023-02-10T20:26:02.668Z,3.95
2023-02-10T20:31:30.408Z,3.93
2023-02-10T20:36:59.522Z,3.84
2023-02-10T20:42:26.949Z,3.71
2023-02-10T20:47:53.822Z,3.56
2023-02-10T20:53:21.143Z,3.51
2023-02-10T20:58:49.452Z,3.61
2023-02-10T21:04:18.369Z,3.46
2023-02-10T21:09:47.301Z,3.38
2023-02-10T21:15:15.509Z,3.03
2023-02-10T21:20:43.361Z,2.71
2023-02-10T21:26:11.670Z,2.47
2023-02-10T21:31:39.708Z,2.19
2023-02-10T21:37:09.447Z,2.13
2023-02-10T21:42:37.505Z,1.94
2023-02-10T21:48:06.943Z,1.75
2023-02-10T21:53:34.315Z,1.63
2023-02-10T21:59:02.208Z,1.53
2023-02-10T22:04:30.230Z,1.43
2023-02-10T22:09:57.449Z,1.26
2023-02-10T22:27:12.457Z,0.98
2023-02-10T22:32:40.723Z,0.88
2023-02-10T22:38:08.326Z,0.82
2023-02-10T22:43:37.424Z,0.80
2023-02-10T22:49:05.005Z,0.82
2023-02-10T22:54:32.294Z,0.80
2023-02-10T23:00:02.913Z,0.79
2023-02-10T23:05:30.093Z,0.75
2023-02-10T23:10:57.609Z,0.73
2023-02-10T23:16:25.534Z,0.75
2023-02-10T23:21:53.454Z,0.77
2023-02-10T23:27:21.329Z,0.93
2023-02-10T23:32:49.458Z,1.20
2023-02-10T23:38:19.127Z,1.46
2023-02-10T23:43:46.887Z,1.75
2023-02-10T23:49:14.646Z,1.98
2023-02-10T23:54:43.224Z,2.16
